< < Back
Terminal Aerodrome Forecast


Current Version              Previous Versions:   1  2  3  4  5  6  7  8  9  

Terminal Aerodrome Forecast

868
FTAK31 PAJN 271100
TAFAHN
TAF
PAHN 271120Z 2712/2812 31014G22KT P6SM SKC
     FM272100 30008KT P6SM SKC
      AMD LTD TO CLD VIS AND WIND=



Latest METAR

971
SAUS70 KWBC 271100
MTRAHN
METAR KAHN 271051Z AUTO 31005KT 8SM CLR M01/M03 A3024 RMK AO2 SLP247
T10111028


USA.gov is the U.S. government's official web portal to all federal, state and local government web resources and services.